Time;durP1;ratioP1;P1;durP2;ratioP2;P2;SDS_P1;SDS_P2;PMS_P1;PMS_P2;Temp;Humidity;BMP_temperature;BMP_pressure;BME280_temperature;BME280_humidity;BME280_pressure;Samples;Min_cycle;Max_cycle;Signal;HPM_P1;HPM_P2
2023/01/12 00:01:11;;;;;;;5.10;1.55;;;;;;;8.44;87.98;98483.34;5014939;23;20233;-89
2023/01/12 00:03:14;;;;;;;15.00;4.07;;;;;;;8.45;88.12;98481.47;5015810;23;20189;-90
2023/01/12 00:05:17;;;;;;;16.20;5.57;;;;;;;8.51;88.07;98482.91;5015917;23;20192;-90
2023/01/12 00:07:22;;;;;;;31.40;6.90;;;;;;;8.50;87.31;98486.44;5017310;23;20178;-90
2023/01/12 00:09:25;;;;;;;216.35;53.05;;;;;;;8.50;87.49;98491.63;5014013;23;20390;-90
2023/01/12 00:11:28;;;;;;;6.85;2.17;;;;;;;8.51;86.68;98485.53;5038765;23;20234;-90
2023/01/12 00:13:32;;;;;;;4.80;1.80;;;;;;;8.55;88.20;98487.00;5037375;23;20184;-89
2023/01/12 00:17:55;;;;;;;15.25;4.40;;;;;;;8.57;87.94;98490.38;4989744;23;20182;-89
2023/01/12 00:19:58;;;;;;;49.83;13.00;;;;;;;8.60;87.13;98491.06;5014206;23;20904;-89
2023/01/12 00:22:04;;;;;;;6.80;2.95;;;;;;;8.61;87.82;98482.31;5015943;23;20178;-89
2023/01/12 00:24:09;;;;;;;4.60;1.38;;;;;;;8.65;86.54;98480.41;5015988;23;20181;-90
2023/01/12 00:26:12;;;;;;;29.98;8.93;;;;;;;8.64;86.95;98476.94;5039115;23;20180;-90
2023/01/12 00:28:15;;;;;;;8.88;1.92;;;;;;;8.70;87.05;98480.97;4990647;23;20186;-90
2023/01/12 00:30:18;;;;;;;5.10;1.77;;;;;;;8.72;86.46;98480.00;5015410;23;20229;-90
2023/01/12 00:32:21;;;;;;;3.97;1.70;;;;;;;8.77;87.68;98480.56;4990161;23;20193;-90
2023/01/12 00:34:25;;;;;;;69.22;16.52;;;;;;;8.67;86.04;98475.94;5014752;23;20193;-90
2023/01/12 00:36:31;;;;;;;95.38;22.15;;;;;;;8.63;87.19;98477.88;5014448;23;20189;-89
2023/01/12 00:38:37;;;;;;;7.80;2.67;;;;;;;8.69;87.65;98474.09;5015591;23;20583;-89
2023/01/12 00:40:41;;;;;;;8.88;2.03;;;;;;;8.60;86.84;98459.84;5013961;23;20188;-90
2023/01/12 00:45:23;;;;;;;15.80;4.65;;;;;;;8.51;86.48;98465.56;5013140;23;20184;-89
2023/01/12 00:47:26;;;;;;;5.70;1.77;;;;;;;8.41;88.17;98468.72;5014670;23;20165;-90
2023/01/12 00:49:29;;;;;;;8.90;3.60;;;;;;;8.38;86.68;98455.06;5016011;23;20181;-89
2023/01/12 00:51:32;;;;;;;17.00;5.53;;;;;;;8.32;87.65;98450.22;5012100;23;20182;-90
2023/01/12 00:53:35;;;;;;;7.30;1.88;;;;;;;8.26;88.60;98461.75;5014294;23;20177;-90
2023/01/12 00:55:39;;;;;;;21.20;6.10;;;;;;;8.16;87.85;98460.59;5014169;23;20236;-89
2023/01/12 00:57:43;;;;;;;12.15;3.10;;;;;;;8.11;88.61;98453.91;5013799;23;20202;-90
2023/01/12 00:59:46;;;;;;;6.00;1.95;;;;;;;8.10;88.65;98453.06;5014855;23;20181;-89
2023/01/12 01:01:49;;;;;;;5.82;2.90;;;;;;;8.09;88.86;98459.19;5013095;23;20859;-90
2023/01/12 01:03:52;;;;;;;11.57;3.88;;;;;;;8.07;88.66;98461.03;5012545;23;20204;-90
2023/01/12 01:06:01;;;;;;;18.33;4.72;;;;;;;8.09;88.92;98461.78;5016147;23;20229;-90
2023/01/12 01:08:04;;;;;;;4.35;1.85;;;;;;;8.14;88.57;98465.00;5013976;23;20635;-90
2023/01/12 01:10:08;;;;;;;4.95;2.30;;;;;;;8.16;88.07;98457.13;5014892;23;20888;-89
2023/01/12 01:12:11;;;;;;;9.65;3.65;;;;;;;8.18;88.46;98456.13;4990517;23;20773;-90
2023/01/12 01:14:16;;;;;;;7.03;2.90;;;;;;;8.20;89.13;98453.47;5014017;23;20560;-89
2023/01/12 01:16:19;;;;;;;7.53;2.60;;;;;;;8.19;87.87;98468.19;5016027;23;20232;-89
2023/01/12 01:18:22;;;;;;;7.43;3.17;;;;;;;8.17;89.34;98467.44;5014331;23;20263;-90
2023/01/12 01:20:26;;;;;;;11.77;3.58;;;;;;;8.20;88.88;98464.69;5015996;23;20522;-89
2023/01/12 01:22:29;;;;;;;24.98;8.95;;;;;;;8.24;88.85;98473.13;5013287;23;20864;-89
2023/01/12 01:24:32;;;;;;;4.72;2.00;;;;;;;8.22;89.39;98468.03;5016074;23;20180;-89
2023/01/12 01:26:35;;;;;;;7.55;1.77;;;;;;;8.26;89.06;98468.72;5039223;23;20177;-89
2023/01/12 01:28:38;;;;;;;15.70;7.85;;;;;;;8.28;88.38;98475.50;5015719;23;20216;-90
2023/01/12 01:30:42;;;;;;;5.28;2.17;;;;;;;8.28;87.67;98474.66;5039001;23;20271;-89
2023/01/12 01:32:45;;;;;;;5.30;2.20;;;;;;;8.22;88.07;98478.41;5038800;23;20191;-89
2023/01/12 01:34:48;;;;;;;4.28;1.70;;;;;;;8.25;89.06;98482.63;5017454;23;20176;-90
2023/01/12 01:36:51;;;;;;;6.03;2.22;;;;;;;8.27;88.51;98476.44;5014879;23;20204;-89
2023/01/12 01:38:54;;;;;;;8.27;3.17;;;;;;;8.25;88.03;98461.84;4991480;23;20189;-90
2023/01/12 01:40:57;;;;;;;4.97;2.00;;;;;;;8.26;88.58;98464.34;5015236;23;20208;-90
2023/01/12 01:43:01;;;;;;;5.95;2.00;;;;;;;8.30;88.26;98470.22;4990817;23;20617;-90
2023/01/12 01:45:06;;;;;;;7.05;1.60;;;;;;;8.33;88.32;98470.91;5015715;23;20183;-90
2023/01/12 01:47:15;;;;;;;4.47;1.20;;;;;;;8.34;88.71;98476.94;5014516;23;20184;-89
2023/01/12 01:49:26;;;;;;;9.20;2.40;;;;;;;8.36;87.76;98469.88;5016063;23;20694;-88
2023/01/12 01:51:29;;;;;;;9.68;2.40;;;;;;;8.32;88.21;98474.41;5038110;23;20264;-89
2023/01/12 01:53:34;;;;;;;3.60;1.67;;;;;;;8.26;88.22;98463.53;5014005;23;20185;-89
2023/01/12 01:55:42;;;;;;;8.63;1.80;;;;;;;8.23;88.82;98480.09;5014106;23;20269;-90
2023/01/12 01:57:48;;;;;;;5.35;2.17;;;;;;;8.18;87.78;98469.13;5014721;23;20228;-90
2023/01/12 01:59:54;;;;;;;5.72;1.70;;;;;;;8.20;89.50;98482.03;5038435;23;20626;-90
2023/01/12 02:01:58;;;;;;;7.28;1.70;;;;;;;8.21;88.38;98471.56;5015204;23;20269;-89
2023/01/12 02:04:03;;;;;;;5.57;1.85;;;;;;;8.16;88.75;98467.50;5012937;23;20201;-90
2023/01/12 02:06:07;;;;;;;9.10;2.05;;;;;;;8.16;88.60;98462.31;5013805;23;20269;-89
2023/01/12 02:08:15;;;;;;;4.80;2.00;;;;;;;8.10;89.70;98468.66;5013652;23;20260;-89
2023/01/12 02:10:18;;;;;;;4.38;1.80;;;;;;;8.14;89.35;98462.41;5012972;23;20181;-89
2023/01/12 02:17:16;;;;;;;10.70;2.28;;;;;;;8.16;88.34;98470.13;5013142;23;20624;-90
2023/01/12 02:19:33;;;;;;;5.82;1.90;;;;;;;8.24;88.84;98466.19;4988946;23;20178;-90
2023/01/12 02:22:14;;;;;;;5.78;1.90;;;;;;;8.23;88.92;98461.91;5037241;23;20620;-89
2023/01/12 02:24:32;;;;;;;7.72;1.58;;;;;;;8.42;88.58;98457.44;4997948;23;20264;-90
2023/01/12 02:26:57;;;;;;;2.83;1.35;;;;;;;8.38;87.50;98455.06;4990543;23;20234;-90
2023/01/12 02:29:29;;;;;;;3.95;1.80;;;;;;;8.43;87.76;98443.50;5016377;23;20170;-90
2023/01/12 02:31:42;;;;;;;6.90;2.03;;;;;;;8.41;88.19;98437.56;4944300;24;20214;-90
2023/01/12 02:33:54;;;;;;;7.10;1.60;;;;;;;8.43;87.00;98429.66;4991427;23;20371;-90
2023/01/12 02:36:02;;;;;;;5.97;1.90;;;;;;;8.46;86.14;98430.34;5014466;23;20180;-90
2023/01/12 02:38:12;;;;;;;4.82;1.98;;;;;;;8.49;86.94;98424.97;5014927;23;20820;-90
2023/01/12 02:40:21;;;;;;;6.53;1.65;;;;;;;8.50;86.19;98434.44;5015547;23;20188;-89
2023/01/12 02:42:40;;;;;;;6.60;2.20;;;;;;;8.50;86.59;98426.66;5014119;23;20181;-90
2023/01/12 02:44:48;;;;;;;5.85;1.50;;;;;;;8.55;86.53;98422.03;5014768;23;20185;-90
2023/01/12 02:46:54;;;;;;;4.55;1.60;;;;;;;8.58;86.45;98419.25;5038231;23;20200;-89
2023/01/12 02:49:02;;;;;;;6.28;2.95;;;;;;;8.61;86.09;98413.91;5013318;23;20662;-89
2023/01/12 02:51:08;;;;;;;4.47;1.45;;;;;;;8.60;85.56;98407.00;4990109;23;20176;-90
2023/01/12 02:53:14;;;;;;;3.35;1.75;;;;;;;8.62;85.15;98410.38;5013763;23;20256;-89
2023/01/12 02:55:18;;;;;;;7.13;1.73;;;;;;;8.67;85.29;98405.75;5012934;23;20204;-89
2023/01/12 02:57:23;;;;;;;8.88;1.90;;;;;;;8.70;85.37;98403.81;5013647;23;20300;-90
2023/01/12 02:59:28;;;;;;;4.50;1.60;;;;;;;8.68;85.16;98400.47;5014891;23;20383;-89
2023/01/12 03:01:32;;;;;;;4.70;1.90;;;;;;;8.71;85.72;98394.28;5037948;23;20177;-89
2023/01/12 03:03:38;;;;;;;3.95;1.40;;;;;;;8.70;85.27;98390.81;5014097;23;20200;-89
2023/01/12 03:05:42;;;;;;;6.32;1.42;;;;;;;8.76;84.99;98387.88;5015039;23;20177;-89
2023/01/12 03:07:49;;;;;;;7.72;1.40;;;;;;;8.78;85.52;98386.06;5015616;23;20801;-89
2023/01/12 03:09:55;;;;;;;7.50;1.58;;;;;;;8.76;84.78;98387.03;5015529;23;20187;-89
2023/01/12 03:12:01;;;;;;;5.82;1.45;;;;;;;8.82;84.95;98390.13;5014846;23;20176;-89
2023/01/12 03:14:05;;;;;;;3.15;1.58;;;;;;;8.85;84.45;98373.53;5015505;23;20185;-89
2023/01/12 03:16:09;;;;;;;3.58;1.30;;;;;;;8.86;85.01;98388.22;5038364;23;20268;-89
2023/01/12 03:18:15;;;;;;;6.55;1.70;;;;;;;8.86;83.68;98383.00;5015159;23;20221;-89
2023/01/12 03:20:24;;;;;;;4.80;1.90;;;;;;;8.87;84.68;98389.88;5015472;23;20181;-89
2023/01/12 03:22:27;;;;;;;4.47;1.50;;;;;;;8.73;84.91;98377.66;5015532;23;20185;-89
2023/01/12 03:24:33;;;;;;;3.47;1.10;;;;;;;8.82;84.71;98378.91;5017184;23;20188;-89
2023/01/12 03:26:38;;;;;;;5.03;1.73;;;;;;;8.82;84.74;98387.53;5038811;23;20203;-89
2023/01/12 03:28:45;;;;;;;6.15;1.85;;;;;;;8.79;85.14;98384.28;5015689;23;20177;-89
2023/01/12 03:30:54;;;;;;;5.53;1.10;;;;;;;8.70;84.20;98377.00;5014473;23;20207;-89
2023/01/12 03:32:57;;;;;;;5.05;1.60;;;;;;;8.70;84.99;98379.59;5013768;23;20243;-89
2023/01/12 03:35:00;;;;;;;4.45;1.50;;;;;;;8.66;86.09;98386.72;5014476;23;20244;-90
2023/01/12 03:37:08;;;;;;;13.10;2.33;;;;;;;8.62;84.73;98374.00;5015350;23;20273;-90
2023/01/12 03:39:17;;;;;;;6.30;1.65;;;;;;;8.68;85.48;98384.06;5015141;23;20210;-89
2023/01/12 03:41:27;;;;;;;5.80;1.65;;;;;;;8.64;84.71;98382.53;5015257;23;20668;-89
2023/01/12 03:43:32;;;;;;;4.60;1.45;;;;;;;8.67;85.78;98382.38;5014653;23;20482;-89
2023/01/12 03:45:39;;;;;;;7.22;1.63;;;;;;;8.67;85.38;98388.38;5016847;23;20170;-89
2023/01/12 03:47:43;;;;;;;9.05;1.70;;;;;;;8.67;85.36;98387.56;5015941;23;20161;-90
2023/01/12 03:49:50;;;;;;;7.35;1.35;;;;;;;8.64;85.66;98383.34;5015122;23;20236;-90
2023/01/12 03:51:55;;;;;;;6.10;1.65;;;;;;;8.64;85.85;98387.72;5038379;23;20243;-90
2023/01/12 03:54:00;;;;;;;6.82;1.52;;;;;;;8.64;86.30;98385.97;4991176;23;20170;-90
2023/01/12 03:56:06;;;;;;;4.32;1.55;;;;;;;8.63;86.14;98381.72;5039428;23;20185;-90
2023/01/12 03:58:10;;;;;;;5.57;1.67;;;;;;;8.56;85.42;98382.97;5016462;23;20704;-90
2023/01/12 04:00:14;;;;;;;5.65;1.50;;;;;;;8.60;86.32;98384.47;5014863;23;20173;-91
2023/01/12 04:02:17;;;;;;;8.40;1.45;;;;;;;8.59;85.77;98374.16;5015257;23;20232;-90
2023/01/12 04:04:22;;;;;;;5.63;1.50;;;;;;;8.61;85.19;98377.50;4990808;23;20659;-90
2023/01/12 04:06:25;;;;;;;2.88;1.50;;;;;;;8.55;86.88;98367.44;5015073;23;20263;-91
2023/01/12 04:08:28;;;;;;;3.90;1.60;;;;;;;8.54;86.75;98371.00;5015059;23;20217;-90
2023/01/12 04:10:32;;;;;;;8.38;2.08;;;;;;;8.57;85.23;98363.84;5038021;23;20268;-89
2023/01/12 04:12:34;;;;;;;7.95;1.65;;;;;;;8.57;85.34;98361.25;5015309;23;20693;-91
2023/01/12 04:14:38;;;;;;;4.97;1.55;;;;;;;8.61;85.89;98367.09;5014633;23;20264;-90
2023/01/12 04:16:41;;;;;;;6.00;1.30;;;;;;;8.57;86.42;98363.03;5014165;23;20185;-89
2023/01/12 04:18:44;;;;;;;4.65;1.30;;;;;;;8.54;85.82;98353.63;5016728;23;20205;-89
2023/01/12 04:20:47;;;;;;;6.43;1.60;;;;;;;8.54;85.79;98355.41;5015604;23;20177;-89
2023/01/12 04:22:49;;;;;;;4.68;1.65;;;;;;;8.50;86.06;98359.09;5013529;23;20691;-89
2023/01/12 04:24:51;;;;;;;7.35;2.10;;;;;;;8.52;85.71;98365.03;5017002;23;20185;-89
2023/01/12 04:26:55;;;;;;;8.73;1.60;;;;;;;8.53;84.94;98353.72;5014360;23;20944;-89
2023/01/12 04:28:58;;;;;;;7.05;2.00;;;;;;;8.57;86.21;98357.81;5015962;23;20178;-89
2023/01/12 04:31:01;;;;;;;5.53;1.63;;;;;;;8.58;86.05;98362.09;5015751;23;20182;-89
2023/01/12 04:33:08;;;;;;;8.18;1.83;;;;;;;8.53;87.48;98357.13;5014760;23;20265;-88
2023/01/12 04:35:12;;;;;;;5.30;1.50;;;;;;;8.50;86.34;98352.13;5017505;23;20157;-89
2023/01/12 04:37:15;;;;;;;5.68;1.75;;;;;;;8.54;86.42;98358.81;5015871;23;20736;-90
2023/01/12 04:39:18;;;;;;;5.90;1.50;;;;;;;8.53;85.83;98351.94;5016257;23;20209;-89
2023/01/12 04:41:21;;;;;;;8.02;1.98;;;;;;;8.53;85.75;98338.94;5013737;23;20184;-89
2023/01/12 04:43:25;;;;;;;5.60;1.58;;;;;;;8.61;86.29;98343.72;5013922;23;20184;-88
2023/01/12 04:45:29;;;;;;;3.95;1.50;;;;;;;8.60;84.99;98339.44;5016311;23;20177;-90
2023/01/12 04:47:33;;;;;;;7.53;1.45;;;;;;;8.60;85.26;98326.44;5016066;23;20221;-90
2023/01/12 04:49:36;;;;;;;5.43;1.40;;;;;;;8.63;86.54;98326.25;5014058;23;20176;-90
2023/01/12 04:51:39;;;;;;;7.32;1.58;;;;;;;8.59;86.50;98327.38;5038602;23;20172;-90
2023/01/12 04:53:42;;;;;;;4.55;1.10;;;;;;;8.61;86.18;98318.53;5037974;23;20580;-89
2023/01/12 04:55:48;;;;;;;4.38;1.30;;;;;;;8.63;85.13;98319.31;4991058;23;20192;-90
2023/01/12 04:57:51;;;;;;;4.13;1.27;;;;;;;8.68;85.57;98324.25;5016096;23;20177;-89
2023/01/12 04:59:55;;;;;;;5.00;1.80;;;;;;;8.71;84.87;98329.28;4990635;23;20202;-89
2023/01/12 05:01:58;;;;;;;5.57;2.22;;;;;;;8.75;85.13;98333.34;5013620;23;20185;-89
2023/01/12 05:04:01;;;;;;;5.32;2.15;;;;;;;8.77;85.11;98321.13;5015875;23;20197;-89
2023/01/12 05:06:05;;;;;;;5.40;1.65;;;;;;;8.78;85.55;98334.03;5016773;23;20166;-89
2023/01/12 05:10:30;;;;;;;7.88;1.85;;;;;;;8.81;86.17;98320.00;5016761;23;20720;-89
2023/01/12 05:12:33;;;;;;;9.88;2.30;;;;;;;8.80;84.34;98320.97;5016355;23;20196;-88
2023/01/12 05:14:36;;;;;;;4.63;1.20;;;;;;;8.78;84.74;98321.03;5038858;23;20212;-89
2023/01/12 05:16:40;;;;;;;7.40;1.30;;;;;;;8.77;85.45;98327.16;5014512;23;20181;-88
2023/01/12 05:18:44;;;;;;;12.02;2.28;;;;;;;8.82;85.88;98332.09;5014465;23;20241;-89
2023/01/12 05:20:47;;;;;;;5.60;1.58;;;;;;;8.80;85.03;98326.97;5015667;23;20250;-89
2023/01/12 05:22:51;;;;;;;8.05;1.50;;;;;;;8.77;85.51;98332.34;5014124;23;20185;-88
2023/01/12 05:24:54;;;;;;;5.95;1.80;;;;;;;8.77;86.04;98328.94;5014373;23;20189;-89
2023/01/12 05:26:57;;;;;;;7.00;2.15;;;;;;;8.75;86.13;98329.03;5016202;23;20188;-89
2023/01/12 05:29:00;;;;;;;4.65;1.50;;;;;;;8.78;85.95;98328.00;5015777;23;20187;-90
2023/01/12 05:31:05;;;;;;;7.43;2.22;;;;;;;8.76;85.87;98327.25;5017430;23;20189;-89
2023/01/12 05:33:15;;;;;;;6.90;1.80;;;;;;;8.74;85.71;98316.94;5015462;23;20519;-89
2023/01/12 05:35:18;;;;;;;7.30;2.15;;;;;;;8.77;86.42;98318.53;5013422;23;20548;-89
2023/01/12 05:37:21;;;;;;;8.48;2.03;;;;;;;8.78;85.97;98312.38;4991262;23;20178;-90
2023/01/12 05:39:24;;;;;;;4.45;1.52;;;;;;;8.77;86.10;98311.56;5011695;23;20248;-89
2023/01/12 05:41:27;;;;;;;7.90;1.70;;;;;;;8.74;86.54;98306.53;5014283;23;20177;-88
2023/01/12 05:45:51;;;;;;;7.47;1.55;;;;;;;8.77;85.83;98308.97;4991459;23;20240;-88
2023/01/12 05:47:58;;;;;;;6.70;2.08;;;;;;;8.81;85.88;98312.22;5015894;23;21108;-88
2023/01/12 05:50:02;;;;;;;6.13;2.65;;;;;;;8.74;87.24;98308.31;5014614;23;20273;-88
2023/01/12 05:52:05;;;;;;;7.50;1.98;;;;;;;8.71;86.08;98309.31;5014062;23;20168;-87
2023/01/12 05:54:08;;;;;;;10.50;1.75;;;;;;;8.73;86.19;98309.22;4989730;23;20197;-88
2023/01/12 05:56:16;;;;;;;8.57;2.38;;;;;;;8.70;87.28;98314.59;5015807;23;20208;-88
2023/01/12 05:58:19;;;;;;;5.50;1.90;;;;;;;8.71;86.50;98311.91;5016489;23;20183;-88
2023/01/12 06:00:23;;;;;;;7.70;1.90;;;;;;;8.75;86.88;98317.75;5014001;23;20685;-87
2023/01/12 06:02:27;;;;;;;9.13;1.60;;;;;;;8.71;86.49;98311.09;5016059;23;20192;-88
2023/01/12 06:04:30;;;;;;;9.70;2.08;;;;;;;8.70;86.45;98307.63;5015687;23;20308;-88
2023/01/12 06:06:35;;;;;;;5.05;1.65;;;;;;;8.68;86.66;98300.84;5014996;23;20177;-88
2023/01/12 06:08:38;;;;;;;8.40;1.85;;;;;;;8.66;86.25;98287.94;5015851;23;20206;-88
2023/01/12 06:10:41;;;;;;;4.72;1.83;;;;;;;8.65;85.68;98295.84;5038581;23;20183;-88
2023/01/12 06:15:04;;;;;;;7.45;2.65;;;;;;;8.67;86.55;98296.56;5010460;23;20181;-88
2023/01/12 06:17:07;;;;;;;5.95;2.25;;;;;;;8.67;87.54;98293.97;5016254;23;20268;-88
2023/01/12 06:19:11;;;;;;;7.65;1.90;;;;;;;8.69;87.30;98290.38;5013297;23;20190;-88
2023/01/12 06:21:15;;;;;;;10.50;1.85;;;;;;;8.70;86.76;98284.22;5015342;23;20183;-88
2023/01/12 06:23:19;;;;;;;4.85;1.42;;;;;;;8.68;86.50;98290.47;5014147;23;20539;-88
2023/01/12 06:25:36;;;;;;;6.40;1.40;;;;;;;8.69;86.28;98290.38;5013541;23;20181;-87
2023/01/12 06:27:40;;;;;;;7.03;2.15;;;;;;;8.72;86.96;98284.13;5015766;23;20535;-88
2023/01/12 06:29:43;;;;;;;7.45;1.90;;;;;;;8.74;86.89;98283.13;5015260;23;20177;-87
2023/01/12 06:31:46;;;;;;;7.13;2.17;;;;;;;8.76;86.38;98283.03;5015210;23;20177;-88
2023/01/12 06:33:49;;;;;;;8.98;2.40;;;;;;;8.76;87.04;98278.66;5015555;23;20212;-88
2023/01/12 06:35:52;;;;;;;8.15;1.95;;;;;;;8.75;85.97;98274.41;5015421;23;20181;-88
2023/01/12 06:37:56;;;;;;;6.00;1.77;;;;;;;8.75;86.41;98279.63;5016526;23;20212;-88
2023/01/12 06:40:00;;;;;;;8.80;1.95;;;;;;;8.77;86.64;98276.94;4992673;23;20205;-88
2023/01/12 06:44:25;;;;;;;9.95;1.80;;;;;;;8.78;86.15;98281.19;5016108;23;20185;-87
2023/01/12 06:46:28;;;;;;;7.68;1.88;;;;;;;8.83;86.95;98286.97;5015444;23;20493;-87
2023/01/12 06:48:32;;;;;;;4.70;1.40;;;;;;;8.80;85.18;98287.97;5013152;23;20193;-88
2023/01/12 06:50:41;;;;;;;9.68;1.88;;;;;;;8.82;85.45;98278.31;4989417;23;21000;-88
2023/01/12 06:52:44;;;;;;;7.07;2.20;;;;;;;8.84;85.97;98275.63;5012485;23;20482;-88
2023/01/12 06:54:47;;;;;;;5.65;2.20;;;;;;;8.88;86.42;98279.72;5016638;23;20336;-88
2023/01/12 06:56:53;;;;;;;3.28;1.42;;;;;;;8.84;85.93;98281.69;5017360;23;20208;-88
2023/01/12 06:58:56;;;;;;;11.02;2.20;;;;;;;8.80;86.23;98279.34;5016714;23;20257;-88
2023/01/12 07:01:00;;;;;;;6.30;2.75;;;;;;;8.82;86.92;98287.88;5018108;23;20205;-87
2023/01/12 07:03:03;;;;;;;7.00;1.58;;;;;;;8.84;86.56;98293.84;5015367;23;20610;-88
2023/01/12 07:05:07;;;;;;;7.60;2.00;;;;;;;8.82;86.17;98282.69;5017696;23;20234;-89
2023/01/12 07:07:10;;;;;;;8.40;1.80;;;;;;;8.87;85.92;98291.06;5040067;23;20180;-88
2023/01/12 07:09:13;;;;;;;8.73;1.55;;;;;;;8.89;86.32;98284.84;5015134;23;20219;-89
2023/01/12 07:11:16;;;;;;;6.55;2.05;;;;;;;9.03;85.38;98277.06;5014253;23;20187;-88
2023/01/12 07:13:21;;;;;;;6.93;3.28;;;;;;;9.02;85.78;98273.63;5017444;23;20188;-88
2023/01/12 07:15:24;;;;;;;5.22;1.30;;;;;;;9.01;85.46;98282.34;4989538;23;20182;-88
2023/01/12 07:17:27;;;;;;;7.25;1.50;;;;;;;8.98;86.15;98274.72;5015688;23;20181;-90
2023/01/12 07:19:30;;;;;;;5.93;1.73;;;;;;;9.02;85.30;98270.16;5016361;23;20181;-88
2023/01/12 07:21:33;;;;;;;6.35;1.33;;;;;;;8.96;86.24;98279.19;5040255;23;20220;-88
2023/01/12 07:23:37;;;;;;;9.23;1.60;;;;;;;8.96;85.90;98275.78;4991644;23;20261;-88
2023/01/12 07:25:40;;;;;;;7.70;1.85;;;;;;;8.99;86.03;98284.22;5016833;23;20204;-88
2023/01/12 07:27:48;;;;;;;4.93;1.77;;;;;;;8.97;86.33;98285.22;4992841;23;20189;-89
2023/01/12 07:29:52;;;;;;;12.65;2.10;;;;;;;8.95;86.33;98284.50;5017014;23;20192;-89
2023/01/12 07:31:55;;;;;;;6.45;1.35;;;;;;;9.01;85.74;98290.16;5015885;23;20283;-91
2023/01/12 07:33:58;;;;;;;4.72;1.80;;;;;;;9.06;85.02;98295.91;5017389;23;20192;-91
2023/01/12 07:36:02;;;;;;;4.63;1.58;;;;;;;9.07;86.25;98292.41;5016919;23;20181;-89
2023/01/12 07:38:05;;;;;;;6.15;2.75;;;;;;;9.05;85.59;98291.66;5040367;23;20177;-89
2023/01/12 07:40:10;;;;;;;14.25;1.77;;;;;;;9.05;85.83;98289.06;5015406;23;20188;-89
2023/01/12 07:42:24;;;;;;;7.75;1.80;;;;;;;9.01;84.89;98284.13;5015621;23;20181;-89
2023/01/12 07:44:27;;;;;;;5.93;1.92;;;;;;;9.02;86.18;98283.19;5016541;23;20228;-90
2023/01/12 07:46:31;;;;;;;5.95;1.33;;;;;;;8.97;85.42;98278.25;5015565;23;20177;-90
2023/01/12 07:48:34;;;;;;;5.53;1.50;;;;;;;9.02;86.47;98276.22;5016240;23;20693;-87
2023/01/12 07:50:37;;;;;;;5.63;1.20;;;;;;;9.01;85.41;98279.75;5017345;23;20280;-87
2023/01/12 07:52:41;;;;;;;6.25;1.77;;;;;;;9.04;85.34;98274.38;5016631;23;20184;-88
2023/01/12 07:54:44;;;;;;;5.57;1.67;;;;;;;9.10;85.33;98279.22;5017163;23;20236;-92
2023/01/12 07:56:47;;;;;;;5.53;1.42;;;;;;;9.13;85.16;98278.19;5015900;23;20186;-91
2023/01/12 07:58:50;;;;;;;5.45;1.45;;;;;;;9.10;84.60;98278.38;5018143;23;20184;-90
2023/01/12 08:00:53;;;;;;;5.95;1.70;;;;;;;9.12;85.01;98277.34;4992559;23;20219;-89
2023/01/12 08:03:04;;;;;;;7.10;1.40;;;;;;;9.10;84.76;98274.00;5039392;23;20188;-90
2023/01/12 08:05:08;;;;;;;4.97;1.38;;;;;;;9.15;84.47;98271.97;5015782;23;20230;-88
2023/01/12 08:07:11;;;;;;;6.07;1.95;;;;;;;9.24;84.51;98279.22;5016101;23;20209;-90
2023/01/12 08:09:15;;;;;;;6.25;1.42;;;;;;;9.23;84.65;98271.50;5040684;23;20239;-90
2023/01/12 08:11:18;;;;;;;8.07;1.38;;;;;;;9.22;84.89;98262.88;5041141;23;20789;-91
2023/01/12 08:13:24;;;;;;;8.23;1.52;;;;;;;9.24;83.45;98263.59;5039468;23;20184;-91
2023/01/12 08:15:28;;;;;;;6.00;1.63;;;;;;;9.25;84.00;98265.28;5040417;23;20173;-91
2023/01/12 08:17:34;;;;;;;2.97;1.20;;;;;;;9.27;83.80;98268.63;5014374;23;20184;-91
2023/01/12 08:19:42;;;;;;;4.65;1.23;;;;;;;9.22;82.92;98255.06;5016149;23;20677;-91
2023/01/12 08:21:48;;;;;;;3.33;1.40;;;;;;;9.30;82.32;98265.00;5015573;23;20204;-90
2023/01/12 08:23:53;;;;;;;4.13;1.13;;;;;;;9.29;82.62;98269.38;5041223;23;20177;-91
2023/01/12 08:25:59;;;;;;;10.75;3.65;;;;;;;9.24;83.24;98258.41;4992333;23;20238;-90
2023/01/12 08:28:04;;;;;;;12.52;2.70;;;;;;;9.29;82.88;98258.13;5016863;23;20255;-87
2023/01/12 08:30:09;;;;;;;5.97;1.50;;;;;;;9.28;83.45;98257.28;5041414;23;20177;-89
2023/01/12 08:32:16;;;;;;;13.35;5.63;;;;;;;9.37;83.07;98256.75;5037897;23;20226;-88
2023/01/12 08:34:19;;;;;;;4.78;1.35;;;;;;;9.33;82.53;98250.03;5036055;23;20519;-89
2023/01/12 08:36:25;;;;;;;3.08;1.33;;;;;;;9.37;82.20;98250.69;5038374;23;20184;-89
2023/01/12 08:38:28;;;;;;;5.88;1.20;;;;;;;9.44;82.41;98258.03;5037706;23;20187;-88
2023/01/12 08:42:49;;;;;;;5.00;1.48;;;;;;;9.46;81.92;98261.38;5035662;23;20244;-88
2023/01/12 08:44:52;;;;;;;4.50;1.27;;;;;;;9.43;82.18;98259.78;5014549;23;20207;-91
2023/01/12 08:46:55;;;;;;;7.03;1.60;;;;;;;9.48;82.33;98259.50;5013698;23;20815;-89
2023/01/12 08:48:58;;;;;;;3.35;1.13;;;;;;;9.49;81.83;98269.84;5015316;23;20188;-90
2023/01/12 08:51:01;;;;;;;3.90;1.13;;;;;;;9.50;81.82;98262.84;5014593;23;20182;-89
2023/01/12 08:53:06;;;;;;;3.95;1.33;;;;;;;9.47;81.64;98258.69;5014354;23;20574;-90
2023/01/12 08:55:10;;;;;;;4.95;1.45;;;;;;;9.44;82.00;98263.22;5015524;23;20174;-88
2023/01/12 08:57:15;;;;;;;6.18;1.02;;;;;;;9.45;81.78;98264.91;5014608;23;20181;-90
2023/01/12 08:59:18;;;;;;;7.40;1.35;;;;;;;9.47;82.35;98258.69;5015385;23;20252;-90
2023/01/12 09:01:22;;;;;;;7.50;1.40;;;;;;;9.46;82.37;98261.38;5038814;23;20201;-90
2023/01/12 09:03:25;;;;;;;4.50;1.40;;;;;;;9.46;82.05;98248.38;5014248;23;20185;-91
2023/01/12 09:05:28;;;;;;;2.50;0.95;;;;;;;9.44;82.56;98253.66;5019448;23;20698;-89
2023/01/12 09:07:31;;;;;;;3.47;1.42;;;;;;;9.42;82.78;98259.88;5014344;23;20571;-88
2023/01/12 09:09:36;;;;;;;4.53;1.30;;;;;;;9.36;82.23;98262.88;4990588;23;20279;-88
2023/01/12 09:11:40;;;;;;;6.88;1.40;;;;;;;9.41;82.43;98266.00;5014633;23;20652;-90
2023/01/12 09:13:43;;;;;;;5.78;1.42;;;;;;;9.42;82.47;98263.31;5014556;23;20193;-88
2023/01/12 09:15:46;;;;;;;5.00;1.95;;;;;;;9.44;82.36;98258.03;5013395;23;20189;-90
2023/01/12 09:18:09;;;;;;;4.70;1.20;;;;;;;9.43;82.54;98265.00;5014468;23;20178;-89
2023/01/12 09:20:13;;;;;;;4.30;2.42;;;;;;;9.42;83.47;98268.53;5015117;23;20586;-90
2023/01/12 09:22:16;;;;;;;4.28;1.40;;;;;;;9.42;83.77;98262.50;5012680;23;20204;-89
2023/01/12 09:24:19;;;;;;;5.25;1.40;;;;;;;9.45;83.29;98265.72;4991322;23;20653;-89
2023/01/12 09:26:25;;;;;;;6.22;1.73;;;;;;;9.41;83.39;98266.00;5015645;23;20189;-89
2023/01/12 09:28:28;;;;;;;5.15;2.03;;;;;;;9.41;83.03;98276.41;5015572;23;20185;-89
2023/01/12 09:30:31;;;;;;;3.67;1.10;;;;;;;9.38;83.45;98276.59;5013653;23;20256;-90
2023/01/12 09:32:34;;;;;;;7.53;1.40;;;;;;;9.40;83.90;98288.59;5015518;23;20203;-89
2023/01/12 09:34:39;;;;;;;5.85;1.50;;;;;;;9.43;84.25;98285.00;5040620;23;20183;-90
2023/01/12 09:36:43;;;;;;;5.35;1.58;;;;;;;9.41;84.12;98292.91;5039582;23;20179;-90
2023/01/12 09:38:47;;;;;;;7.32;1.50;;;;;;;9.41;84.37;98287.69;5016054;23;20176;-88
2023/01/12 09:40:50;;;;;;;3.60;1.20;;;;;;;9.38;84.50;98289.63;5039618;23;20176;-88
2023/01/12 09:47:43;;;;;;;7.05;1.15;;;;;;;9.47;84.98;98276.91;4990043;23;20623;-89
2023/01/12 09:49:50;;;;;;;7.38;1.95;;;;;;;9.48;84.91;98269.94;5013190;23;20221;-90
2023/01/12 09:52:04;;;;;;;4.93;1.20;;;;;;;9.49;84.70;98267.22;5036458;23;20693;-90
2023/01/12 09:54:07;;;;;;;3.25;1.17;;;;;;;9.52;84.92;98274.03;5013114;23;20180;-89
2023/01/12 09:56:16;;;;;;;10.55;1.83;;;;;;;9.50;84.83;98273.25;5014800;23;20188;-90
2023/01/12 09:58:34;;;;;;;7.88;1.73;;;;;;;9.52;85.82;98274.03;5012558;23;20223;-86
2023/01/12 10:00:37;;;;;;;5.30;1.10;;;;;;;9.52;84.61;98271.41;5015008;23;20173;-86
2023/01/12 10:02:42;;;;;;;4.05;1.35;;;;;;;9.54;84.76;98275.59;5011439;23;20201;-87
2023/01/12 10:04:46;;;;;;;7.88;1.75;;;;;;;9.59;85.76;98265.75;5015282;23;20809;-87
2023/01/12 10:06:49;;;;;;;5.57;1.75;;;;;;;9.68;84.94;98274.75;5015458;23;20229;-88
2023/01/12 10:08:54;;;;;;;4.60;1.50;;;;;;;9.73;84.75;98267.50;4989082;23;20182;-89
2023/01/12 10:11:05;;;;;;;4.75;1.27;;;;;;;9.72;84.61;98266.66;5014968;23;20174;-92
2023/01/12 10:13:12;;;;;;;7.43;1.83;;;;;;;9.68;84.90;98257.38;5014416;23;20221;-92
2023/01/12 10:15:29;;;;;;;4.60;1.50;;;;;;;9.66;85.66;98250.56;4992217;23;20852;-93
2023/01/12 10:17:38;;;;;;;5.15;1.55;;;;;;;9.68;85.80;98246.97;5016280;23;20610;-91
2023/01/12 10:19:59;;;;;;;8.30;2.72;;;;;;;9.68;85.41;98244.34;5015330;23;20176;-91
2023/01/12 10:22:11;;;;;;;10.70;3.90;;;;;;;9.72;86.01;98232.78;5038020;23;20210;-90